Terminal Aerodrome Forecast
Issued by NWS

Home | Current Version | Previous Version | Text Only | Print | Product List | Glossary On
Versions: 1 2 3 4 5 6 7 8 9 10 11 12
000
FTUS42 KTAE 300520
TAFDHN
TAF
KDHN 300520Z 3006/3106 VRB03KT P6SM SKC
     FM301400 33005KT P6SM FEW040
     FM302000 34007KT P6SM VCSH SCT060
     FM310000 27005KT P6SM SCT250=

USA.gov is the U.S. government's official web portal to all federal, state and local government web resources and services.